Etna, New York
Current Conditions -  °F | °C
As of 1:56 AM on Saturday 25 Oct 2014 (Local Time) from KITH Reporting Station
Clear Clear  
Wind Chill: 35°   Ceiling: Unl
Heat Index: 35°   Visibility: 10mi
Dew Point: 34°   Wind: 0mph
Humidity: 97%   Direction: NA
Pressure: 29.91"   Gusts: NA
Location:  42.48°N, 76.38°W
Report Text: KITH 250556Z AUTO 00000KT 10SM CLR 02/01 A2991 RMK AO2 58011 T00160011 10094 20016 SLP132
Loading
Personal Weather Stations






























Interactive Weather Map
Tropical Storm Tracking
New forecast layout! Learn more

10-Day Weather Forecast

Advertisements
Track Severe Weather on mobile